Time;durP1;ratioP1;P1;durP2;ratioP2;P2;SDS_P1;SDS_P2;PMS_P1;PMS_P2;Temp;Humidity;BMP_temperature;BMP_pressure;BME280_temperature;BME280_humidity;BME280_pressure;Samples;Min_cycle;Max_cycle;Signal;HPM_P1;HPM_P2
2022/07/22 00:01:21;;;;;;;;;;;22.00;72.00;;;;;;4993192;28;1894;-77
2022/07/22 00:03:47;;;;;;;;;;;22.00;72.00;;;;;;4992346;28;785;-77
2022/07/22 00:06:12;;;;;;;;;;;21.90;72.00;;;;;;4987422;28;2007;-77
2022/07/22 00:08:38;;;;;;;;;;;21.90;72.00;;;;;;4974979;28;1018;-77
2022/07/22 00:11:03;;;;;;;;;;;21.90;72.00;;;;;;4959576;28;1240;-77
2022/07/22 00:13:29;;;;;;;;;;;21.90;72.00;;;;;;4956481;28;1173;-77
2022/07/22 00:15:54;;;;;;;;;;;21.90;72.00;;;;;;4992751;28;1172;-76
2022/07/22 00:18:20;;;;;;;;;;;22.00;72.10;;;;;;4988007;28;2235;-75
2022/07/22 00:20:45;;;;;;;;;;;21.90;72.00;;;;;;4973847;28;1286;-77
2022/07/22 00:23:10;;;;;;;;;;;22.00;72.10;;;;;;4987882;28;1296;-77
2022/07/22 00:25:36;;;;;;;;;;;22.00;72.10;;;;;;4987913;28;1237;-76
2022/07/22 00:28:01;;;;;;;;;;;21.90;72.00;;;;;;4967757;28;1209;-76
2022/07/22 00:30:27;;;;;;;;;;;22.00;72.10;;;;;;4986424;28;1228;-76
2022/07/22 00:32:52;;;;;;;;;;;21.90;72.00;;;;;;4986158;28;1315;-76
2022/07/22 00:35:18;;;;;;;;;;;22.00;72.10;;;;;;4984477;28;1177;-75
2022/07/22 00:37:43;;;;;;;;;;;22.00;72.10;;;;;;4986793;28;1241;-76
2022/07/22 00:40:09;;;;;;;;;;;21.90;72.00;;;;;;4985953;28;1283;-75
2022/07/22 00:42:34;;;;;;;;;;;22.00;72.20;;;;;;4967822;28;1918;-76
2022/07/22 00:45:00;;;;;;;;;;;22.00;72.10;;;;;;4969316;28;1302;-76
2022/07/22 00:47:25;;;;;;;;;;;22.00;72.10;;;;;;4969587;28;1266;-76
2022/07/22 00:49:51;;;;;;;;;;;21.90;72.00;;;;;;4992334;28;1292;-77
2022/07/22 00:52:17;;;;;;;;;;;21.90;72.00;;;;;;4973185;28;1323;-76
2022/07/22 00:54:43;;;;;;;;;;;22.00;72.80;;;;;;4972227;28;1305;-78
2022/07/22 00:57:08;;;;;;;;;;;21.90;72.10;;;;;;4972344;28;1283;-77
2022/07/22 00:59:34;;;;;;;;;;;21.90;72.10;;;;;;4986257;28;1233;-75
2022/07/22 01:01:59;;;;;;;;;;;21.90;72.10;;;;;;4967506;28;1898;-76
2022/07/22 01:04:25;;;;;;;;;;;22.00;72.10;;;;;;4986032;28;1229;-75
2022/07/22 01:06:50;;;;;;;;;;;22.00;72.10;;;;;;4984343;28;1256;-76
2022/07/22 01:09:15;;;;;;;;;;;21.90;72.00;;;;;;4969074;28;1213;-75
2022/07/22 01:11:41;;;;;;;;;;;21.90;72.10;;;;;;4985253;28;1281;-74
2022/07/22 01:14:07;;;;;;;;;;;22.00;72.20;;;;;;4990666;28;1217;-76
2022/07/22 01:16:32;;;;;;;;;;;22.00;72.10;;;;;;4992900;28;1237;-75
2022/07/22 01:18:58;;;;;;;;;;;21.90;72.10;;;;;;4986087;28;1248;-75
2022/07/22 01:21:25;;;;;;;;;;;22.00;72.20;;;;;;4977468;28;1902;-76
2022/07/22 01:23:51;;;;;;;;;;;21.90;72.10;;;;;;4983834;28;1312;-75
2022/07/22 01:26:17;;;;;;;;;;;21.90;72.10;;;;;;4984770;28;1249;-75
2022/07/22 01:28:42;;;;;;;;;;;21.90;72.10;;;;;;4977277;28;1459;-77
2022/07/22 01:31:08;;;;;;;;;;;21.90;72.10;;;;;;4980537;28;1339;-76
2022/07/22 01:33:33;;;;;;;;;;;21.90;72.10;;;;;;5035474;23;3575;-67
2022/07/22 01:35:59;;;;;;;;;;;21.90;72.10;;;;;;5033127;28;795;-70
2022/07/22 01:38:24;;;;;;;;;;;21.90;72.10;;;;;;5016789;28;799;-70
2022/07/22 01:40:50;;;;;;;;;;;21.90;72.10;;;;;;5016582;28;1977;-70
2022/07/22 01:43:17;;;;;;;;;;;21.90;72.10;;;;;;5036509;28;1288;-72
2022/07/22 01:45:46;;;;;;;;;;;21.90;72.10;;;;;;5017199;28;899;-69
2022/07/22 01:48:12;;;;;;;;;;;21.90;72.10;;;;;;5034209;28;711;-70
2022/07/22 01:50:38;;;;;;;;;;;21.90;72.10;;;;;;5033986;28;791;-70
2022/07/22 01:53:03;;;;;;;;;;;22.00;72.20;;;;;;5016492;28;1170;-71
2022/07/22 01:55:28;;;;;;;;;;;21.90;72.10;;;;;;5016124;28;935;-72
2022/07/22 01:57:54;;;;;;;;;;;21.90;72.10;;;;;;5034039;28;906;-71
2022/07/22 02:00:20;;;;;;;;;;;21.90;72.10;;;;;;5034072;28;858;-70
2022/07/22 02:02:45;;;;;;;;;;;21.90;72.10;;;;;;5034107;28;1906;-70
2022/07/22 02:05:11;;;;;;;;;;;21.90;72.10;;;;;;5015843;28;1034;-71
2022/07/22 02:07:36;;;;;;;;;;;21.90;72.10;;;;;;5033915;28;883;-69
2022/07/22 02:10:02;;;;;;;;;;;21.90;72.10;;;;;;5016234;28;779;-70
2022/07/22 02:12:28;;;;;;;;;;;21.90;72.10;;;;;;5033805;28;1259;-72
2022/07/22 02:14:53;;;;;;;;;;;21.90;72.10;;;;;;5033381;28;1013;-70
2022/07/22 02:17:19;;;;;;;;;;;21.90;72.10;;;;;;5033768;28;1010;-71
2022/07/22 02:19:44;;;;;;;;;;;22.00;72.20;;;;;;5033400;28;1178;-70
2022/07/22 02:22:10;;;;;;;;;;;21.90;72.10;;;;;;5015879;28;1961;-70
2022/07/22 02:24:35;;;;;;;;;;;22.00;72.20;;;;;;5033427;28;851;-72
2022/07/22 02:27:01;;;;;;;;;;;21.90;72.10;;;;;;5016098;28;824;-71
2022/07/22 02:29:26;;;;;;;;;;;21.90;72.10;;;;;;5016106;28;749;-70
2022/07/22 02:31:52;;;;;;;;;;;21.90;72.10;;;;;;5015969;28;1225;-70
2022/07/22 02:34:17;;;;;;;;;;;21.90;72.10;;;;;;5033210;28;1018;-70
2022/07/22 02:36:42;;;;;;;;;;;21.90;72.10;;;;;;5033475;28;705;-70
2022/07/22 02:39:08;;;;;;;;;;;21.90;72.10;;;;;;5033640;28;780;-70
2022/07/22 02:41:33;;;;;;;;;;;21.90;72.10;;;;;;5033534;28;1956;-73
2022/07/22 02:43:59;;;;;;;;;;;21.90;72.10;;;;;;5015452;28;1288;-72
2022/07/22 02:46:24;;;;;;;;;;;21.90;72.10;;;;;;5015338;28;883;-71
2022/07/22 02:48:50;;;;;;;;;;;21.90;72.10;;;;;;5033230;28;867;-72
2022/07/22 02:51:15;;;;;;;;;;;21.90;72.10;;;;;;5033121;28;843;-72
2022/07/22 02:53:41;;;;;;;;;;;21.90;72.10;;;;;;5032976;28;1177;-70
2022/07/22 02:56:06;;;;;;;;;;;21.90;72.10;;;;;;5033033;28;1017;-72
2022/07/22 02:58:32;;;;;;;;;;;21.90;72.10;;;;;;5015510;28;842;-72
2022/07/22 03:00:57;;;;;;;;;;;21.90;72.10;;;;;;5033164;28;1902;-73
2022/07/22 03:03:23;;;;;;;;;;;21.90;72.10;;;;;;5032892;28;1204;-69
2022/07/22 03:05:49;;;;;;;;;;;21.90;72.10;;;;;;5014876;28;1200;-71
2022/07/22 03:08:14;;;;;;;;;;;21.90;72.20;;;;;;5015349;28;859;-72
2022/07/22 03:10:40;;;;;;;;;;;21.90;72.20;;;;;;5015279;28;1397;-70
2022/07/22 03:13:05;;;;;;;;;;;21.90;72.10;;;;;;5032933;28;1290;-69
2022/07/22 03:15:31;;;;;;;;;;;21.90;72.50;;;;;;5014882;28;1133;-71
2022/07/22 03:17:56;;;;;;;;;;;22.00;72.20;;;;;;5015009;28;891;-70
2022/07/22 03:20:22;;;;;;;;;;;21.90;72.10;;;;;;5032654;28;1107;-73
2022/07/22 03:22:47;;;;;;;;;;;21.90;72.20;;;;;;5032836;28;1943;-73
2022/07/22 03:25:12;;;;;;;;;;;21.90;72.20;;;;;;5032501;28;1018;-74
2022/07/22 03:27:38;;;;;;;;;;;21.90;72.20;;;;;;5033256;28;854;-73
2022/07/22 03:30:04;;;;;;;;;;;21.90;72.20;;;;;;5032704;28;882;-75
2022/07/22 03:32:30;;;;;;;;;;;22.00;72.20;;;;;;5014746;28;1369;-70
2022/07/22 03:34:55;;;;;;;;;;;22.00;72.20;;;;;;5014895;28;788;-71
2022/07/22 03:37:20;;;;;;;;;;;22.00;72.20;;;;;;5015191;28;852;-70
2022/07/22 03:39:46;;;;;;;;;;;21.90;72.20;;;;;;5015067;28;911;-71
2022/07/22 03:42:11;;;;;;;;;;;21.90;72.20;;;;;;5032526;28;1906;-69
2022/07/22 03:44:37;;;;;;;;;;;21.90;72.20;;;;;;5032486;28;871;-69
2022/07/22 03:47:02;;;;;;;;;;;21.90;72.20;;;;;;5032501;28;1021;-69
2022/07/22 03:49:29;;;;;;;;;;;21.90;72.20;;;;;;5014897;28;800;-70
2022/07/22 03:51:55;;;;;;;;;;;21.90;72.20;;;;;;5032522;28;1195;-69
2022/07/22 03:54:20;;;;;;;;;;;21.90;72.20;;;;;;5032384;28;796;-71
2022/07/22 03:56:45;;;;;;;;;;;21.90;72.20;;;;;;5032607;28;847;-69
2022/07/22 03:59:11;;;;;;;;;;;22.00;72.30;;;;;;5036100;28;867;-69
2022/07/22 04:01:36;;;;;;;;;;;21.90;72.20;;;;;;5036253;28;1902;-70
2022/07/22 04:04:02;;;;;;;;;;;21.90;72.20;;;;;;5035728;28;1286;-70
2022/07/22 04:06:27;;;;;;;;;;;21.90;72.20;;;;;;5036234;28;839;-70
2022/07/22 04:08:54;;;;;;;;;;;21.90;72.20;;;;;;5036241;28;862;-70
2022/07/22 04:11:20;;;;;;;;;;;21.90;72.20;;;;;;5018891;28;754;-71
2022/07/22 04:13:45;;;;;;;;;;;21.90;72.20;;;;;;5001781;28;1341;-70
2022/07/22 04:16:11;;;;;;;;;;;21.90;72.20;;;;;;5018275;28;848;-71
2022/07/22 04:18:36;;;;;;;;;;;21.90;72.20;;;;;;5035929;28;859;-70
2022/07/22 04:21:02;;;;;;;;;;;21.90;72.20;;;;;;5035722;28;1965;-70
2022/07/22 04:23:27;;;;;;;;;;;21.90;72.20;;;;;;5035799;28;1290;-70
2022/07/22 04:25:52;;;;;;;;;;;21.90;72.20;;;;;;5035700;28;1033;-70
2022/07/22 04:28:18;;;;;;;;;;;21.90;72.20;;;;;;5035789;28;950;-69
2022/07/22 04:30:43;;;;;;;;;;;21.90;72.20;;;;;;5035665;28;1147;-72
2022/07/22 04:33:09;;;;;;;;;;;21.90;72.20;;;;;;5032486;28;1272;-71
2022/07/22 04:35:34;;;;;;;;;;;21.90;72.20;;;;;;5026034;28;1240;-71
2022/07/22 04:38:00;;;;;;;;;;;21.90;72.20;;;;;;5024929;28;1228;-70
2022/07/22 04:40:25;;;;;;;;;;;21.90;72.20;;;;;;5027030;28;1428;-70
2022/07/22 04:42:51;;;;;;;;;;;21.90;72.20;;;;;;5035607;28;1902;-71
2022/07/22 04:45:16;;;;;;;;;;;21.90;72.20;;;;;;5035210;28;1085;-70
2022/07/22 04:47:42;;;;;;;;;;;21.90;72.20;;;;;;5017710;28;852;-70
2022/07/22 04:50:07;;;;;;;;;;;21.90;72.20;;;;;;5035417;28;892;-71
2022/07/22 04:52:33;;;;;;;;;;;21.90;72.20;;;;;;5035171;28;1277;-70
2022/07/22 04:54:58;;;;;;;;;;;21.90;72.20;;;;;;5034971;28;1013;-70
2022/07/22 04:57:25;;;;;;;;;;;21.90;72.20;;;;;;5035422;28;865;-71
2022/07/22 04:59:50;;;;;;;;;;;21.90;72.20;;;;;;5035322;28;857;-71
2022/07/22 05:02:16;;;;;;;;;;;21.90;72.20;;;;;;5034875;28;1894;-71
2022/07/22 05:04:41;;;;;;;;;;;21.90;72.20;;;;;;5035140;28;812;-70
2022/07/22 05:07:07;;;;;;;;;;;21.90;72.20;;;;;;5035152;28;887;-70
2022/07/22 05:09:32;;;;;;;;;;;22.00;72.30;;;;;;5034963;28;938;-71
2022/07/22 05:11:57;;;;;;;;;;;21.90;72.20;;;;;;5034882;28;1226;-70
2022/07/22 05:14:23;;;;;;;;;;;21.90;72.20;;;;;;5034697;28;1183;-70
2022/07/22 05:16:48;;;;;;;;;;;21.90;72.20;;;;;;5034559;28;799;-70
2022/07/22 05:19:14;;;;;;;;;;;21.90;72.20;;;;;;5034593;28;1091;-69
2022/07/22 05:21:39;;;;;;;;;;;22.00;72.30;;;;;;5034503;28;1886;-69
2022/07/22 05:24:05;;;;;;;;;;;21.90;72.20;;;;;;5034168;28;1176;-71
2022/07/22 05:26:32;;;;;;;;;;;21.90;72.20;;;;;;5034514;28;1013;-70
2022/07/22 05:28:57;;;;;;;;;;;21.90;72.20;;;;;;5034371;28;816;-71
2022/07/22 05:31:23;;;;;;;;;;;21.90;72.20;;;;;;5033875;28;1116;-71
2022/07/22 05:33:48;;;;;;;;;;;21.90;72.20;;;;;;5033889;28;1184;-70
2022/07/22 05:36:14;;;;;;;;;;;22.00;72.30;;;;;;5034015;28;1010;-71
2022/07/22 05:38:39;;;;;;;;;;;21.90;72.20;;;;;;5033772;28;1005;-71
2022/07/22 05:41:05;;;;;;;;;;;22.00;72.30;;;;;;5033755;28;1902;-70
2022/07/22 05:43:30;;;;;;;;;;;22.00;72.30;;;;;;5033640;28;1229;-71
2022/07/22 05:45:55;;;;;;;;;;;21.90;72.30;;;;;;5015584;28;906;-71
2022/07/22 05:48:21;;;;;;;;;;;21.90;72.20;;;;;;5033599;28;879;-71
2022/07/22 05:50:46;;;;;;;;;;;21.90;72.30;;;;;;5015927;28;1104;-71
2022/07/22 05:53:12;;;;;;;;;;;21.90;72.20;;;;;;5033546;28;1212;-70
2022/07/22 05:55:37;;;;;;;;;;;21.90;72.20;;;;;;5033067;28;853;-70
2022/07/22 05:58:03;;;;;;;;;;;22.00;72.30;;;;;;5033455;28;812;-70
2022/07/22 06:00:28;;;;;;;;;;;21.90;72.20;;;;;;5033284;28;815;-71
2022/07/22 06:02:53;;;;;;;;;;;21.90;72.20;;;;;;5033159;28;1961;-71
2022/07/22 06:05:19;;;;;;;;;;;21.90;72.30;;;;;;5030208;28;2258;-71
2022/07/22 06:07:45;;;;;;;;;;;22.00;72.30;;;;;;5013871;28;1208;-71
2022/07/22 06:10:10;;;;;;;;;;;22.00;72.30;;;;;;5033116;28;1091;-70
2022/07/22 06:12:35;;;;;;;;;;;21.90;72.20;;;;;;5032966;28;1284;-70
2022/07/22 06:15:01;;;;;;;;;;;21.90;72.30;;;;;;5033002;28;994;-71
2022/07/22 06:17:26;;;;;;;;;;;21.90;72.20;;;;;;5016056;28;972;-70
2022/07/22 06:19:52;;;;;;;;;;;21.90;72.20;;;;;;5033171;28;1104;-70
2022/07/22 06:22:17;;;;;;;;;;;22.00;72.30;;;;;;5033511;28;1894;-71
2022/07/22 06:24:43;;;;;;;;;;;21.90;72.30;;;;;;5033771;28;887;-71
2022/07/22 06:27:08;;;;;;;;;;;21.90;72.30;;;;;;5015879;28;1046;-70
2022/07/22 06:29:34;;;;;;;;;;;21.90;72.20;;;;;;5033548;28;1050;-71
2022/07/22 06:31:59;;;;;;;;;;;21.90;72.20;;;;;;5015513;28;1306;-71
2022/07/22 06:34:25;;;;;;;;;;;22.00;72.40;;;;;;5033117;28;872;-71
2022/07/22 06:36:50;;;;;;;;;;;22.00;72.30;;;;;;5033494;28;875;-69
2022/07/22 06:39:16;;;;;;;;;;;21.90;72.20;;;;;;5015724;28;1038;-70
2022/07/22 06:41:41;;;;;;;;;;;21.90;72.30;;;;;;5025970;28;2252;-69
2022/07/22 06:44:06;;;;;;;;;;;21.90;72.30;;;;;;5013243;28;1818;-68
2022/07/22 06:46:32;;;;;;;;;;;22.00;72.40;;;;;;5024905;28;1189;-69
2022/07/22 06:48:57;;;;;;;;;;;22.00;72.30;;;;;;5030398;28;1061;-69
2022/07/22 06:51:23;;;;;;;;;;;22.00;72.30;;;;;;5032069;28;827;-69
2022/07/22 06:53:48;;;;;;;;;;;21.90;72.40;;;;;;5031988;28;1180;-70
2022/07/22 06:56:14;;;;;;;;;;;21.90;72.30;;;;;;5032175;28;846;-70
2022/07/22 06:58:39;;;;;;;;;;;22.00;72.30;;;;;;5032251;28;777;-72
2022/07/22 07:01:05;;;;;;;;;;;21.90;72.20;;;;;;5031607;28;1957;-69
2022/07/22 07:03:30;;;;;;;;;;;22.00;72.30;;;;;;5032961;28;1170;-69
2022/07/22 07:05:56;;;;;;;;;;;22.00;72.30;;;;;;5032692;28;733;-69
2022/07/22 07:08:21;;;;;;;;;;;22.00;72.40;;;;;;5033109;28;879;-69
2022/07/22 07:10:48;;;;;;;;;;;21.90;72.30;;;;;;5032872;28;919;-71
2022/07/22 07:13:13;;;;;;;;;;;22.00;72.30;;;;;;5032949;28;1191;-70
2022/07/22 07:15:39;;;;;;;;;;;21.90;72.30;;;;;;5032583;28;1065;-71
2022/07/22 07:18:04;;;;;;;;;;;21.90;72.30;;;;;;5032728;28;1112;-70
2022/07/22 07:20:29;;;;;;;;;;;21.90;72.30;;;;;;5015202;28;1160;-71
2022/07/22 07:22:55;;;;;;;;;;;21.90;72.30;;;;;;5032649;28;1969;-70
2022/07/22 07:25:21;;;;;;;;;;;22.00;72.30;;;;;;5032593;28;1052;-70
2022/07/22 07:27:46;;;;;;;;;;;22.00;72.30;;;;;;5032619;28;898;-69
2022/07/22 07:30:12;;;;;;;;;;;22.00;72.30;;;;;;5014545;28;1340;-70
2022/07/22 07:32:37;;;;;;;;;;;21.90;72.30;;;;;;5049852;23;1932;-72
2022/07/22 07:35:03;;;;;;;;;;;21.90;72.30;;;;;;5006611;28;1079;-72
2022/07/22 07:37:28;;;;;;;;;;;22.00;72.30;;;;;;5032667;28;1058;-72
2022/07/22 07:39:54;;;;;;;;;;;22.00;72.30;;;;;;5036295;28;1303;-72
2022/07/22 07:42:19;;;;;;;;;;;22.00;72.30;;;;;;5036015;28;1976;-72
2022/07/22 07:44:45;;;;;;;;;;;21.90;72.30;;;;;;5018424;28;859;-72
2022/07/22 07:47:10;;;;;;;;;;;22.00;72.30;;;;;;5036088;28;989;-73
2022/07/22 07:49:36;;;;;;;;;;;22.00;72.30;;;;;;5036023;28;929;-73
2022/07/22 07:52:01;;;;;;;;;;;21.90;72.30;;;;;;5018403;28;796;-72
2022/07/22 07:54:26;;;;;;;;;;;22.00;72.30;;;;;;5035760;28;1260;-73
2022/07/22 07:56:52;;;;;;;;;;;21.90;72.30;;;;;;5035882;28;1006;-73
2022/07/22 07:59:17;;;;;;;;;;;22.00;72.30;;;;;;5018586;28;1002;-73
2022/07/22 08:01:43;;;;;;;;;;;21.90;72.30;;;;;;5036313;28;1961;-73
2022/07/22 08:04:08;;;;;;;;;;;22.00;72.30;;;;;;5036004;28;1232;-73
2022/07/22 08:06:34;;;;;;;;;;;22.00;72.40;;;;;;5036105;28;1045;-73
2022/07/22 08:08:59;;;;;;;;;;;22.00;72.30;;;;;;5036164;28;796;-73
2022/07/22 08:11:25;;;;;;;;;;;22.00;72.40;;;;;;5018373;28;895;-73
2022/07/22 08:13:50;;;;;;;;;;;21.90;72.30;;;;;;5030636;28;1411;-71
2022/07/22 08:16:16;;;;;;;;;;;22.00;72.40;;;;;;5017128;28;1391;-71
2022/07/22 08:18:41;;;;;;;;;;;21.90;72.30;;;;;;5017912;28;1167;-69
2022/07/22 08:21:07;;;;;;;;;;;21.90;72.30;;;;;;5035771;28;1890;-70
2022/07/22 08:23:32;;;;;;;;;;;22.00;72.40;;;;;;5035234;28;1203;-75
2022/07/22 08:25:58;;;;;;;;;;;22.00;73.10;;;;;;5016469;28;1077;-75
2022/07/22 08:28:24;;;;;;;;;;;22.00;72.30;;;;;;5018040;28;827;-75
2022/07/22 08:30:49;;;;;;;;;;;22.00;72.30;;;;;;5001858;28;1254;-77
2022/07/22 08:33:15;;;;;;;;;;;22.00;72.30;;;;;;5017832;28;1284;-75
2022/07/22 08:35:40;;;;;;;;;;;21.90;72.30;;;;;;5035501;28;789;-75
2022/07/22 08:38:06;;;;;;;;;;;22.00;72.30;;;;;;5017999;28;823;-76
2022/07/22 08:40:31;;;;;;;;;;;21.90;72.30;;;;;;5035549;28;938;-76
2022/07/22 08:42:57;;;;;;;;;;;22.00;72.30;;;;;;5016930;28;1953;-76
2022/07/22 08:45:23;;;;;;;;;;;21.90;72.30;;;;;;5017480;28;843;-75
2022/07/22 08:47:49;;;;;;;;;;;22.00;72.30;;;;;;5017581;28;998;-75
2022/07/22 08:50:15;;;;;;;;;;;22.00;72.30;;;;;;5001055;28;1208;-74
2022/07/22 08:52:40;;;;;;;;;;;21.90;72.30;;;;;;5000839;28;1285;-74
2022/07/22 08:55:06;;;;;;;;;;;22.00;72.40;;;;;;5017010;28;820;-74
2022/07/22 08:57:32;;;;;;;;;;;22.00;72.30;;;;;;5034978;28;986;-73
2022/07/22 08:59:57;;;;;;;;;;;22.00;72.40;;;;;;5035063;28;791;-77
2022/07/22 09:02:23;;;;;;;;;;;22.00;72.40;;;;;;5017195;28;1966;-73
2022/07/22 09:04:59;;;;;;;;;;;22.00;72.40;;;;;;5017070;28;812;-76
2022/07/22 09:07:28;;;;;;;;;;;22.00;72.40;;;;;;4996261;28;2095;-76
2022/07/22 09:09:54;;;;;;;;;;;22.00;72.30;;;;;;5011046;28;1264;-76
2022/07/22 09:12:20;;;;;;;;;;;22.00;72.40;;;;;;5027717;28;1302;-76
2022/07/22 09:14:50;;;;;;;;;;;22.00;72.40;;;;;;5014216;28;1212;-77
2022/07/22 09:17:25;;;;;;;;;;;22.00;72.30;;;;;;5004106;28;1886;-76
2022/07/22 09:19:51;;;;;;;;;;;22.00;72.40;;;;;;5007292;28;1188;-75
2022/07/22 09:22:34;;;;;;;;;;;22.00;72.30;;;;;;5016817;28;1890;-75
2022/07/22 09:25:19;;;;;;;;;;;22.00;72.30;;;;;;5034410;28;867;-75
2022/07/22 09:27:44;;;;;;;;;;;22.00;72.40;;;;;;5034815;28;835;-74
2022/07/22 09:30:13;;;;;;;;;;;21.90;72.30;;;;;;5016883;28;830;-73
2022/07/22 09:32:42;;;;;;;;;;;22.00;72.40;;;;;;5016756;28;1281;-74
2022/07/22 09:35:08;;;;;;;;;;;22.00;72.30;;;;;;4997068;28;1091;-75
2022/07/22 09:37:33;;;;;;;;;;;22.00;72.30;;;;;;4980855;28;1378;-75
2022/07/22 09:40:15;;;;;;;;;;;22.00;72.40;;;;;;4997069;28;1049;-76
2022/07/22 09:42:50;;;;;;;;;;;22.00;72.40;;;;;;5014587;28;1970;-76
2022/07/22 09:45:16;;;;;;;;;;;21.90;72.30;;;;;;5019411;28;2071;-75
2022/07/22 09:47:42;;;;;;;;;;;22.00;72.40;;;;;;5009089;28;1236;-75
2022/07/22 09:50:14;;;;;;;;;;;21.90;72.30;;;;;;5022212;28;1250;-75
2022/07/22 09:52:42;;;;;;;;;;;22.00;72.40;;;;;;5032267;28;1219;-75
2022/07/22 09:55:07;;;;;;;;;;;22.00;72.40;;;;;;5033680;28;918;-75
2022/07/22 09:57:33;;;;;;;;;;;22.00;72.40;;;;;;5015576;28;1969;-68
2022/07/22 09:59:58;;;;;;;;;;;22.00;72.40;;;;;;5026630;28;1462;-69
2022/07/22 10:02:23;;;;;;;;;;;22.00;72.40;;;;;;5007844;28;1951;-68
2022/07/22 10:04:49;;;;;;;;;;;22.00;72.40;;;;;;5013891;28;1205;-68
2022/07/22 10:07:14;;;;;;;;;;;22.00;72.40;;;;;;4997752;28;1299;-68
2022/07/22 10:09:40;;;;;;;;;;;22.00;72.40;;;;;;4995338;28;894;-68
2022/07/22 10:12:06;;;;;;;;;;;22.00;72.40;;;;;;5013487;28;1396;-67
2022/07/22 10:14:31;;;;;;;;;;;22.00;72.30;;;;;;5014285;28;1484;-68
2022/07/22 10:16:57;;;;;;;;;;;22.00;72.40;;;;;;5032224;28;785;-68
2022/07/22 10:19:22;;;;;;;;;;;22.00;72.30;;;;;;5032236;28;1681;-70
2022/07/22 10:21:48;;;;;;;;;;;22.00;72.30;;;;;;5014336;28;1945;-68
2022/07/22 10:24:14;;;;;;;;;;;22.00;72.30;;;;;;5031808;28;1279;-67
2022/07/22 10:26:46;;;;;;;;;;;22.00;72.40;;;;;;5014813;28;752;-67
2022/07/22 10:29:24;;;;;;;;;;;22.00;72.40;;;;;;5032093;28;757;-66
2022/07/22 10:31:49;;;;;;;;;;;22.00;72.30;;;;;;5014143;28;1870;-67
2022/07/22 10:34:15;;;;;;;;;;;22.00;72.40;;;;;;5032570;28;1304;-67
2022/07/22 10:36:42;;;;;;;;;;;22.00;72.30;;;;;;5032598;28;1455;-67
2022/07/22 10:39:14;;;;;;;;;;;22.00;72.30;;;;;;5033112;28;880;-68
2022/07/22 10:41:43;;;;;;;;;;;22.00;72.40;;;;;;4998561;28;1956;-67
2022/07/22 10:44:10;;;;;;;;;;;22.00;72.40;;;;;;5032619;28;1211;-67
2022/07/22 10:46:47;;;;;;;;;;;22.00;72.30;;;;;;5015371;28;867;-67
2022/07/22 10:49:14;;;;;;;;;;;22.00;72.30;;;;;;5032710;28;812;-68
2022/07/22 10:51:40;;;;;;;;;;;22.00;72.30;;;;;;5015219;28;970;-68
2022/07/22 10:54:05;;;;;;;;;;;22.00;72.30;;;;;;5029214;28;1257;-66
2022/07/22 10:56:31;;;;;;;;;;;22.00;73.10;;;;;;5014408;28;2186;-70
2022/07/22 10:58:57;;;;;;;;;;;22.00;72.30;;;;;;5024330;28;1492;-71
2022/07/22 11:01:23;;;;;;;;;;;22.00;72.30;;;;;;5032462;28;1923;-69
2022/07/22 11:03:49;;;;;;;;;;;22.00;72.40;;;;;;5014789;28;1213;-71
2022/07/22 11:06:14;;;;;;;;;;;22.00;72.30;;;;;;5013954;28;841;-72
2022/07/22 11:08:40;;;;;;;;;;;22.00;72.30;;;;;;5032672;28;827;-72
2022/07/22 11:11:06;;;;;;;;;;;22.00;72.30;;;;;;5014873;28;1423;-69
2022/07/22 11:13:31;;;;;;;;;;;22.00;72.30;;;;;;5014939;28;1670;-68
2022/07/22 11:16:13;;;;;;;;;;;22.00;72.40;;;;;;5032583;28;831;-72
2022/07/22 11:18:45;;;;;;;;;;;22.00;72.40;;;;;;4998670;28;1470;-72
2022/07/22 11:21:11;;;;;;;;;;;22.00;72.40;;;;;;5032524;28;997;-71
2022/07/22 11:23:39;;;;;;;;;;;22.00;72.30;;;;;;5014459;28;1187;-70
2022/07/22 11:26:05;;;;;;;;;;;22.00;72.30;;;;;;5015044;28;886;-71
2022/07/22 11:28:30;;;;;;;;;;;22.00;72.30;;;;;;5032862;28;1042;-70
2022/07/22 11:31:06;;;;;;;;;;;22.00;72.30;;;;;;5010121;28;1583;-71
2022/07/22 11:33:31;;;;;;;;;;;22.00;72.30;;;;;;4991370;28;1639;-69
2022/07/22 11:36:06;;;;;;;;;;;22.00;72.30;;;;;;5012270;28;998;-72
2022/07/22 11:38:50;;;;;;;;;;;22.00;72.30;;;;;;5012917;28;812;-70
2022/07/22 11:41:16;;;;;;;;;;;22.00;72.30;;;;;;5011786;28;1918;-71
2022/07/22 11:43:42;;;;;;;;;;;22.00;72.40;;;;;;5032135;28;1296;-71
2022/07/22 11:46:07;;;;;;;;;;;22.00;72.40;;;;;;5032931;28;852;-72
2022/07/22 11:48:33;;;;;;;;;;;22.00;72.30;;;;;;5029396;28;1889;-69
2022/07/22 11:50:59;;;;;;;;;;;22.00;72.30;;;;;;5018169;28;1538;-71
2022/07/22 11:53:25;;;;;;;;;;;22.00;72.40;;;;;;5012784;28;1204;-74
2022/07/22 11:55:50;;;;;;;;;;;22.00;72.40;;;;;;4997252;28;2175;-70
2022/07/22 11:58:15;;;;;;;;;;;22.00;72.30;;;;;;5032385;28;880;-71
2022/07/22 12:00:41;;;;;;;;;;;22.00;72.30;;;;;;5032238;28;939;-71
2022/07/22 12:03:06;;;;;;;;;;;22.00;72.40;;;;;;5013574;28;1953;-70
2022/07/22 12:05:32;;;;;;;;;;;22.00;72.30;;;;;;5031572;28;886;-71
2022/07/22 12:07:57;;;;;;;;;;;22.00;72.30;;;;;;5014811;28;828;-71
2022/07/22 12:10:23;;;;;;;;;;;22.00;72.40;;;;;;5022289;28;3309;-70
2022/07/22 12:12:48;;;;;;;;;;;22.00;72.40;;;;;;5002761;28;1535;-70
2022/07/22 12:15:14;;;;;;;;;;;22.00;72.30;;;;;;5021746;28;1398;-71
2022/07/22 12:17:39;;;;;;;;;;;22.00;72.30;;;;;;5012558;28;1368;-70
2022/07/22 12:20:12;;;;;;;;;;;22.00;72.40;;;;;;5035013;28;1441;-70
2022/07/22 12:22:43;;;;;;;;;;;22.00;72.30;;;;;;5032264;28;2064;-70
2022/07/22 12:25:09;;;;;;;;;;;22.00;72.40;;;;;;5035266;28;1478;-70
2022/07/22 12:27:34;;;;;;;;;;;22.00;72.40;;;;;;5035471;28;875;-70
2022/07/22 12:30:00;;;;;;;;;;;22.00;72.40;;;;;;5017802;28;875;-69
2022/07/22 12:32:27;;;;;;;;;;;22.00;72.30;;;;;;5017185;28;1501;-70
2022/07/22 12:34:55;;;;;;;;;;;22.00;72.30;;;;;;5017385;28;1498;-69
2022/07/22 12:37:22;;;;;;;;;;;22.00;72.40;;;;;;5017528;28;1469;-67
2022/07/22 12:40:00;;;;;;;;;;;22.00;72.40;;;;;;5035471;28;809;-67
2022/07/22 12:42:27;;;;;;;;;;;22.00;72.30;;;;;;5016686;28;1914;-71
2022/07/22 12:44:59;;;;;;;;;;;22.00;72.30;;;;;;5000268;28;1093;-69
2022/07/22 12:47:37;;;;;;;;;;;22.00;72.30;;;;;;5017428;28;800;-67
2022/07/22 12:50:22;;;;;;;;;;;22.00;72.30;;;;;;5033282;28;1006;-67
2022/07/22 12:52:48;;;;;;;;;;;22.00;72.30;;;;;;5013189;28;2012;-67
2022/07/22 12:55:14;;;;;;;;;;;22.00;72.30;;;;;;5025043;28;1841;-67
2022/07/22 12:57:39;;;;;;;;;;;22.00;72.30;;;;;;5028470;28;1182;-68
2022/07/22 13:00:05;;;;;;;;;;;22.00;72.30;;;;;;5023902;28;1703;-67
2022/07/22 13:02:30;;;;;;;;;;;22.00;72.40;;;;;;5034496;28;1914;-69
2022/07/22 13:04:56;;;;;;;;;;;22.00;72.30;;;;;;5030151;28;1007;-68
2022/07/22 13:07:21;;;;;;;;;;;22.00;72.30;;;;;;5014877;28;950;-68
2022/07/22 13:09:47;;;;;;;;;;;22.00;72.40;;;;;;5021372;28;1256;-70
2022/07/22 13:12:12;;;;;;;;;;;22.00;72.30;;;;;;5024585;28;1231;-68
2022/07/22 13:14:37;;;;;;;;;;;22.00;72.30;;;;;;5025093;28;1152;-68
2022/07/22 13:17:03;;;;;;;;;;;22.00;72.30;;;;;;5024096;28;1219;-69
2022/07/22 13:19:28;;;;;;;;;;;22.00;72.40;;;;;;5010586;28;1295;-69
2022/07/22 13:21:54;;;;;;;;;;;22.00;72.30;;;;;;5018818;28;1956;-70
2022/07/22 13:24:19;;;;;;;;;;;22.00;72.30;;;;;;5014135;28;1309;-70
2022/07/22 13:26:45;;;;;;;;;;;22.00;72.40;;;;;;5014366;28;866;-70
2022/07/22 13:29:11;;;;;;;;;;;22.00;72.30;;;;;;5014373;28;848;-70
2022/07/22 13:31:37;;;;;;;;;;;22.00;72.30;;;;;;5023406;28;1177;-69
2022/07/22 13:34:04;;;;;;;;;;;22.00;72.30;;;;;;5037490;23;3633;-66
2022/07/22 13:36:32;;;;;;;;;;;22.00;72.30;;;;;;5014150;28;851;-64
2022/07/22 13:38:57;;;;;;;;;;;22.00;72.30;;;;;;5014031;28;823;-65
2022/07/22 13:41:23;;;;;;;;;;;22.00;72.30;;;;;;4996455;28;1903;-64
2022/07/22 13:43:48;;;;;;;;;;;22.00;72.30;;;;;;5013959;28;1309;-66
2022/07/22 13:46:14;;;;;;;;;;;22.00;72.30;;;;;;4996656;28;1200;-66
2022/07/22 13:48:40;;;;;;;;;;;22.00;72.30;;;;;;4996308;28;891;-65
2022/07/22 13:51:06;;;;;;;;;;;22.00;72.30;;;;;;4996344;28;855;-66
2022/07/22 13:53:31;;;;;;;;;;;22.00;72.30;;;;;;5011127;28;1378;-68
2022/07/22 13:55:57;;;;;;;;;;;22.00;72.30;;;;;;5008036;28;1767;-68
2022/07/22 13:58:22;;;;;;;;;;;22.00;72.30;;;;;;5009549;28;1811;-67
2022/07/22 14:00:47;;;;;;;;;;;22.00;72.30;;;;;;5013999;28;807;-68
2022/07/22 14:03:13;;;;;;;;;;;22.00;72.30;;;;;;4995421;28;2000;-67
2022/07/22 14:05:38;;;;;;;;;;;22.00;72.30;;;;;;5013563;28;816;-68
2022/07/22 14:08:04;;;;;;;;;;;22.00;72.30;;;;;;4995982;28;938;-68
2022/07/22 14:10:29;;;;;;;;;;;22.00;72.40;;;;;;5013655;28;919;-68
2022/07/22 14:12:55;;;;;;;;;;;22.00;72.30;;;;;;5013555;28;1266;-70
2022/07/22 14:15:20;;;;;;;;;;;22.00;72.30;;;;;;5004625;28;1243;-67
2022/07/22 14:17:45;;;;;;;;;;;22.00;72.30;;;;;;4994083;28;804;-67
2022/07/22 14:20:11;;;;;;;;;;;22.00;72.30;;;;;;5006307;28;1164;-67
2022/07/22 14:22:36;;;;;;;;;;;22.00;72.30;;;;;;4995524;28;1891;-69
2022/07/22 14:25:02;;;;;;;;;;;22.00;72.30;;;;;;5013075;28;1275;-69
2022/07/22 14:27:28;;;;;;;;;;;22.00;72.30;;;;;;4995957;28;911;-69